createdAt,value
2022-10-05T00:01:22.353Z,22.45
2022-10-05T00:04:16.088Z,21.55
2022-10-05T00:07:15.433Z,22.85
2022-10-05T00:10:00.994Z,22.00
2022-10-05T00:12:48.175Z,22.70
2022-10-05T00:15:36.247Z,22.48
2022-10-05T00:18:22.160Z,22.45
2022-10-05T00:21:25.743Z,23.15
2022-10-05T00:27:01.563Z,23.10
2022-10-05T00:29:49.246Z,23.58
2022-10-05T00:32:34.907Z,23.85
2022-10-05T00:35:20.696Z,23.17
2022-10-05T00:38:06.641Z,23.25
2022-10-05T00:41:19.583Z,23.02
2022-10-05T00:44:30.572Z,22.30
2022-10-05T00:47:34.633Z,23.30
2022-10-05T00:50:31.127Z,22.08
2022-10-05T00:53:29.858Z,22.35
2022-10-05T00:56:46.587Z,21.52
2022-10-05T00:59:41.492Z,21.80
2022-10-05T01:02:52.508Z,22.02
2022-10-05T01:06:10.599Z,22.35
2022-10-05T01:09:24.080Z,21.38
2022-10-05T01:12:15.752Z,21.58
2022-10-05T01:15:11.338Z,22.13
2022-10-05T01:18:07.824Z,21.33
2022-10-05T01:21:11.906Z,22.27
2022-10-05T01:24:16.427Z,21.15
2022-10-05T01:27:58.947Z,21.80
2022-10-05T01:31:09.293Z,21.75
2022-10-05T01:34:12.938Z,20.83
2022-10-05T01:37:09.352Z,21.08
2022-10-05T01:40:19.393Z,21.15
2022-10-05T01:43:27.000Z,21.52
2022-10-05T01:46:33.756Z,21.00
2022-10-05T01:49:52.092Z,20.02
2022-10-05T01:52:48.055Z,22.45
2022-10-05T01:56:06.093Z,21.67
2022-10-05T01:59:27.775Z,21.15
2022-10-05T02:02:18.937Z,21.33
2022-10-05T02:05:20.005Z,21.48
2022-10-05T02:08:16.109Z,20.83
2022-10-05T02:11:08.978Z,20.42
2022-10-05T02:14:09.081Z,19.70
2022-10-05T02:16:59.263Z,20.52
2022-10-05T02:19:56.038Z,19.45
2022-10-05T02:22:49.180Z,19.75
2022-10-05T02:28:41.817Z,20.13
2022-10-05T02:31:40.768Z,20.02
2022-10-05T02:34:41.811Z,20.00
2022-10-05T02:38:01.877Z,19.75
2022-10-05T02:40:54.915Z,20.60
2022-10-05T02:43:52.906Z,19.98
2022-10-05T02:47:04.207Z,19.50
2022-10-05T02:50:17.204Z,19.05
2022-10-05T02:53:09.994Z,20.90
2022-10-05T02:56:22.608Z,19.75
2022-10-05T02:59:21.851Z,20.23
2022-10-05T03:02:10.797Z,18.92
2022-10-05T03:04:59.986Z,19.92
2022-10-05T03:07:52.590Z,18.98
2022-10-05T03:11:00.234Z,20.20
2022-10-05T03:13:58.798Z,19.05
2022-10-05T03:16:48.676Z,20.85
2022-10-05T03:20:08.588Z,19.55
2022-10-05T03:23:04.950Z,20.50
2022-10-05T03:26:07.914Z,20.25
2022-10-05T03:28:59.414Z,22.55
2022-10-05T03:32:25.074Z,25.05
2022-10-05T03:35:19.814Z,30.92
2022-10-05T03:38:33.043Z,30.48
2022-10-05T03:44:17.125Z,30.23
2022-10-05T03:47:25.648Z,34.00
2022-10-05T03:50:25.083Z,33.75
2022-10-05T03:53:20.809Z,33.13
2022-10-05T03:56:10.870Z,32.83
2022-10-05T03:59:25.246Z,33.53
2022-10-05T04:02:28.060Z,30.52
2022-10-05T04:05:18.261Z,29.42
2022-10-05T04:08:29.583Z,30.77
2022-10-05T04:11:21.670Z,30.02
2022-10-05T04:14:15.437Z,30.70
2022-10-05T04:17:08.801Z,31.05
2022-10-05T04:23:17.502Z,29.80
2022-10-05T04:26:09.549Z,30.30
2022-10-05T04:29:14.014Z,29.30
2022-10-05T04:32:12.257Z,29.60
2022-10-05T04:35:16.507Z,29.27
2022-10-05T04:38:34.809Z,29.80
2022-10-05T04:41:25.600Z,30.00
2022-10-05T04:44:31.043Z,30.27
2022-10-05T04:48:04.595Z,29.40
2022-10-05T04:51:01.359Z,29.50
2022-10-05T04:53:53.271Z,30.38
2022-10-05T04:56:49.761Z,30.58
2022-10-05T05:00:00.675Z,29.60
2022-10-05T05:03:09.409Z,29.92
2022-10-05T05:06:24.462Z,29.67
2022-10-05T05:09:43.826Z,29.58
2022-10-05T05:12:57.867Z,29.60
2022-10-05T05:19:09.259Z,26.73
2022-10-05T05:22:14.678Z,25.23
2022-10-05T05:25:06.912Z,25.05
2022-10-05T05:28:22.788Z,25.30
2022-10-05T05:31:36.273Z,25.00
2022-10-05T05:34:38.793Z,24.58
2022-10-05T05:37:49.354Z,24.13
2022-10-05T05:40:43.879Z,24.15
2022-10-05T05:44:07.079Z,23.75
2022-10-05T05:47:04.782Z,22.80
2022-10-05T05:50:07.492Z,23.75
2022-10-05T05:53:19.886Z,23.92
2022-10-05T05:56:40.417Z,22.92
2022-10-05T06:00:00.504Z,20.30
2022-10-05T06:02:57.341Z,20.42
2022-10-05T06:05:57.166Z,20.73
2022-10-05T06:09:00.732Z,21.42
2022-10-05T06:12:13.211Z,20.63
2022-10-05T06:15:13.664Z,20.10
2022-10-05T06:18:08.759Z,20.60
2022-10-05T06:21:50.148Z,20.10
2022-10-05T06:24:45.758Z,19.20
2022-10-05T06:27:34.722Z,19.33
2022-10-05T06:30:20.405Z,18.55
2022-10-05T06:33:21.076Z,18.75
2022-10-05T06:36:18.298Z,19.55
2022-10-05T06:39:29.034Z,19.30
2022-10-05T06:42:37.170Z,18.85
2022-10-05T06:45:47.545Z,16.85
2022-10-05T06:49:10.040Z,17.63
2022-10-05T06:53:05.250Z,16.77
2022-10-05T06:55:53.743Z,17.50
2022-10-05T06:58:39.643Z,18.88
2022-10-05T07:01:41.643Z,17.25
2022-10-05T07:04:49.975Z,16.30
2022-10-05T07:08:01.744Z,15.60
2022-10-05T07:11:02.699Z,16.60
2022-10-05T07:14:04.033Z,16.45
2022-10-05T07:17:32.594Z,16.95
2022-10-05T07:20:24.048Z,16.23
2022-10-05T07:23:22.507Z,16.58
2022-10-05T07:26:22.904Z,16.73
2022-10-05T07:29:11.489Z,17.08
2022-10-05T07:32:32.641Z,16.90
2022-10-05T07:35:56.185Z,17.73
2022-10-05T07:38:51.263Z,17.98
2022-10-05T07:41:51.226Z,17.50
2022-10-05T07:44:43.906Z,16.13
2022-10-05T07:47:45.626Z,18.37
2022-10-05T07:50:43.702Z,18.52
2022-10-05T07:53:40.958Z,17.38
2022-10-05T07:56:37.958Z,18.42
2022-10-05T07:59:43.949Z,17.55
2022-10-05T08:02:44.543Z,17.73
2022-10-05T08:05:38.841Z,17.77
2022-10-05T08:08:57.412Z,15.70
2022-10-05T08:11:56.742Z,17.20
2022-10-05T08:15:20.706Z,17.38
2022-10-05T08:18:35.504Z,21.50
2022-10-05T08:21:32.067Z,21.70
2022-10-05T08:24:35.499Z,23.17
2022-10-05T08:27:21.104Z,21.63
2022-10-05T08:30:10.571Z,21.70
2022-10-05T08:32:58.908Z,22.08
2022-10-05T08:35:51.172Z,19.55
2022-10-05T08:38:37.592Z,20.63
2022-10-05T08:41:44.489Z,20.70
2022-10-05T08:44:36.358Z,17.70
2022-10-05T08:47:52.937Z,21.75
2022-10-05T08:50:56.997Z,20.15
2022-10-05T08:54:07.864Z,21.50
2022-10-05T08:57:27.983Z,23.40
2022-10-05T09:00:22.532Z,25.38
2022-10-05T09:03:28.982Z,23.05
2022-10-05T09:06:33.320Z,25.85
2022-10-05T09:09:34.728Z,26.52
2022-10-05T09:12:51.407Z,25.38
2022-10-05T09:16:08.944Z,26.30
2022-10-05T09:19:16.634Z,26.67
2022-10-05T09:22:30.982Z,27.25
2022-10-05T09:25:22.903Z,28.92
2022-10-05T09:28:29.392Z,28.50
2022-10-05T09:31:30.385Z,31.02
2022-10-05T09:34:39.695Z,28.98
2022-10-05T09:37:46.325Z,26.38
2022-10-05T09:40:36.018Z,26.35
2022-10-05T09:43:40.248Z,26.48
2022-10-05T09:46:59.927Z,27.67
2022-10-05T09:50:04.281Z,26.50
2022-10-05T09:53:15.516Z,27.92
2022-10-05T09:56:20.406Z,27.50
2022-10-05T09:59:44.035Z,26.63
2022-10-05T10:03:05.500Z,27.58
2022-10-05T10:06:03.470Z,22.77
2022-10-05T10:08:52.097Z,21.88
2022-10-05T10:11:56.621Z,28.17
2022-10-05T10:15:11.739Z,28.35
2022-10-05T10:18:20.835Z,27.80
2022-10-05T10:21:24.604Z,27.92
2022-10-05T10:24:24.649Z,29.60
2022-10-05T10:27:10.191Z,28.75
2022-10-05T10:29:59.150Z,27.30
2022-10-05T10:33:15.535Z,28.75
2022-10-05T10:36:13.222Z,30.45
2022-10-05T10:39:24.391Z,30.90
2022-10-05T10:42:30.735Z,28.73
2022-10-05T10:45:28.653Z,29.60
2022-10-05T10:48:26.255Z,29.75
2022-10-05T10:51:14.614Z,28.65
2022-10-05T10:54:49.433Z,28.02
2022-10-05T10:57:49.684Z,27.42
2022-10-05T11:00:56.547Z,31.27
2022-10-05T11:04:00.409Z,31.80
2022-10-05T11:06:58.638Z,30.95
2022-10-05T11:10:23.097Z,27.90
2022-10-05T11:16:04.105Z,30.02
2022-10-05T11:19:02.842Z,31.38
2022-10-05T11:22:17.167Z,31.30
2022-10-05T11:25:28.102Z,30.23
2022-10-05T11:28:57.930Z,31.33
2022-10-05T11:31:46.161Z,29.88
2022-10-05T11:34:43.828Z,27.27
2022-10-05T11:37:48.787Z,23.92
2022-10-05T11:40:47.642Z,22.60
2022-10-05T11:43:48.857Z,18.55
2022-10-05T11:46:58.423Z,25.33
2022-10-05T11:49:44.210Z,24.98
2022-10-05T11:52:44.906Z,25.05
2022-10-05T11:55:37.135Z,22.42
2022-10-05T11:58:29.479Z,23.73
2022-10-05T12:01:27.190Z,23.33
2022-10-05T12:04:27.504Z,23.60
2022-10-05T12:07:28.364Z,19.98
2022-10-05T12:10:32.793Z,21.15
2022-10-05T12:13:58.171Z,21.08
2022-10-05T12:17:28.747Z,19.35
2022-10-05T12:20:24.978Z,17.10
2022-10-05T12:23:19.579Z,19.10
2022-10-05T12:26:05.362Z,16.83
2022-10-05T12:29:16.329Z,18.23
2022-10-05T12:32:18.483Z,17.45
2022-10-05T12:35:48.069Z,16.88
2022-10-05T12:38:49.722Z,13.10
2022-10-05T12:41:40.572Z,15.63
2022-10-05T12:44:49.419Z,16.80
2022-10-05T12:47:35.342Z,16.13
2022-10-05T12:50:30.618Z,16.25
2022-10-05T12:53:48.337Z,16.67
2022-10-05T12:56:59.344Z,13.27
2022-10-05T13:00:17.740Z,13.43
2022-10-05T13:03:23.970Z,13.98
2022-10-05T13:06:18.186Z,13.63
2022-10-05T13:09:27.041Z,12.73
2022-10-05T13:12:23.071Z,12.05
2022-10-05T13:15:08.832Z,11.70
2022-10-05T13:18:15.231Z,11.38
2022-10-05T13:21:06.917Z,11.20
2022-10-05T13:24:20.953Z,11.48
2022-10-05T13:27:14.339Z,11.88
2022-10-05T13:30:20.871Z,11.18
2022-10-05T13:33:20.095Z,8.77
2022-10-05T13:36:13.827Z,10.02
2022-10-05T13:39:18.302Z,12.23
2022-10-05T13:42:15.628Z,10.95
2022-10-05T13:45:12.877Z,9.20
2022-10-05T13:48:22.815Z,10.88
2022-10-05T13:51:18.203Z,10.70
2022-10-05T13:54:30.244Z,9.77
2022-10-05T13:57:29.961Z,8.68
2022-10-05T14:00:26.262Z,9.43
2022-10-05T14:03:38.964Z,10.80
2022-10-05T14:06:30.704Z,8.38
2022-10-05T14:09:22.977Z,11.20
2022-10-05T14:12:36.766Z,10.75
2022-10-05T14:15:29.017Z,11.23
2022-10-05T14:18:25.047Z,10.48
2022-10-05T14:21:19.443Z,7.40
2022-10-05T14:24:45.670Z,10.50
2022-10-05T14:27:35.059Z,9.77
2022-10-05T14:30:25.680Z,9.57
2022-10-05T14:33:16.992Z,10.88
2022-10-05T14:36:06.296Z,9.98
2022-10-05T14:38:55.114Z,9.18
2022-10-05T14:41:50.952Z,10.18
2022-10-05T14:44:36.526Z,9.45
2022-10-05T14:47:24.081Z,10.27
2022-10-05T14:50:26.021Z,9.15
2022-10-05T14:53:11.843Z,8.20
2022-10-05T14:56:17.454Z,8.88
2022-10-05T14:59:26.683Z,7.40
2022-10-05T15:02:51.411Z,7.97
2022-10-05T15:05:55.726Z,8.55
2022-10-05T15:09:17.342Z,9.27
2022-10-05T15:12:04.195Z,8.02
2022-10-05T15:14:52.643Z,8.60
2022-10-05T15:17:54.964Z,9.63
2022-10-05T15:20:56.181Z,7.50
2022-10-05T15:23:47.757Z,7.88
2022-10-05T15:26:56.923Z,9.45
2022-10-05T15:30:04.583Z,7.57
2022-10-05T15:33:02.118Z,8.15
2022-10-05T15:35:48.073Z,8.77
2022-10-05T15:39:03.538Z,8.48
2022-10-05T15:42:03.326Z,8.43
2022-10-05T15:45:06.143Z,6.90
2022-10-05T15:48:29.159Z,8.32
2022-10-05T15:51:30.707Z,8.38
2022-10-05T15:54:54.505Z,7.70
2022-10-05T15:57:52.691Z,8.23
2022-10-05T16:01:08.663Z,8.02
2022-10-05T16:04:22.394Z,7.05
2022-10-05T16:10:26.793Z,6.43
2022-10-05T16:13:29.754Z,6.47
2022-10-05T16:16:31.154Z,8.23
2022-10-05T16:19:25.813Z,6.65
2022-10-05T16:22:11.241Z,6.13
2022-10-05T16:25:13.185Z,7.20
2022-10-05T16:28:22.516Z,6.95
2022-10-05T16:31:26.499Z,6.25
2022-10-05T16:34:50.515Z,7.53
2022-10-05T16:38:02.336Z,6.65
2022-10-05T16:41:35.732Z,6.90
2022-10-05T16:44:31.349Z,6.30
2022-10-05T16:47:53.757Z,6.78
2022-10-05T16:51:02.682Z,7.25
2022-10-05T16:54:00.403Z,7.60
2022-10-05T16:57:05.451Z,7.32
2022-10-05T17:00:16.036Z,5.80
2022-10-05T17:03:11.244Z,6.88
2022-10-05T17:06:23.057Z,6.60
2022-10-05T17:09:27.010Z,6.68
2022-10-05T17:12:39.285Z,6.88
2022-10-05T17:15:31.570Z,6.45
2022-10-05T17:18:48.983Z,6.97
2022-10-05T17:21:40.250Z,7.05
2022-10-05T17:24:51.137Z,7.40
2022-10-05T17:27:57.786Z,7.25
2022-10-05T17:31:17.437Z,7.22
2022-10-05T17:34:26.712Z,6.90
2022-10-05T17:37:23.059Z,7.57
2022-10-05T17:40:40.817Z,7.35
2022-10-05T17:43:28.213Z,8.07
2022-10-05T17:46:48.558Z,7.80
2022-10-05T17:50:17.799Z,7.82
2022-10-05T17:53:54.233Z,9.52
2022-10-05T17:57:06.223Z,9.15
2022-10-05T17:59:58.300Z,9.23
2022-10-05T18:02:44.221Z,9.85
2022-10-05T18:05:30.827Z,9.13
2022-10-05T18:08:23.456Z,9.85
2022-10-05T18:11:09.818Z,9.30
2022-10-05T18:14:19.822Z,10.35
2022-10-05T18:17:13.638Z,9.45
2022-10-05T18:20:21.041Z,9.35
2022-10-05T18:23:07.352Z,9.63
2022-10-05T18:26:04.865Z,9.95
2022-10-05T18:29:46.778Z,10.15
2022-10-05T18:32:50.832Z,9.30
2022-10-05T18:35:48.439Z,10.60
2022-10-05T18:38:56.343Z,9.57
2022-10-05T18:42:17.686Z,11.48
2022-10-05T18:45:23.888Z,10.15
2022-10-05T18:48:15.055Z,10.60
2022-10-05T18:51:05.350Z,11.40
2022-10-05T18:54:00.114Z,10.55
2022-10-05T18:56:50.057Z,11.25
2022-10-05T18:59:44.010Z,10.95
2022-10-05T19:02:38.432Z,11.32
2022-10-05T19:05:48.806Z,11.48
2022-10-05T19:08:52.169Z,11.35
2022-10-05T19:11:59.762Z,11.82
2022-10-05T19:15:00.725Z,11.13
2022-10-05T19:17:49.194Z,11.63
2022-10-05T19:20:57.154Z,11.07
2022-10-05T19:24:01.722Z,11.73
2022-10-05T19:27:26.138Z,11.25
2022-10-05T19:30:13.817Z,11.00
2022-10-05T19:33:21.613Z,11.30
2022-10-05T19:36:22.851Z,10.60
2022-10-05T19:39:32.332Z,11.45
2022-10-05T19:42:26.945Z,10.40
2022-10-05T19:45:23.271Z,10.32
2022-10-05T19:48:35.977Z,10.30
2022-10-05T19:51:28.754Z,10.98
2022-10-05T19:54:29.086Z,11.10
2022-10-05T19:57:18.059Z,10.68
2022-10-05T20:00:04.553Z,10.05
2022-10-05T20:02:51.089Z,11.65
2022-10-05T20:05:36.709Z,11.90
2022-10-05T20:08:26.878Z,11.75
2022-10-05T20:11:21.758Z,11.55
2022-10-05T20:14:09.429Z,11.77
2022-10-05T20:17:45.822Z,12.32
2022-10-05T20:20:34.442Z,12.27
2022-10-05T20:23:28.100Z,12.52
2022-10-05T20:29:51.262Z,12.75
2022-10-05T20:32:37.128Z,12.95
2022-10-05T20:35:22.968Z,12.88
2022-10-05T20:38:08.667Z,12.95
2022-10-05T20:40:54.362Z,12.90
2022-10-05T20:43:40.459Z,12.85
2022-10-05T20:46:26.400Z,13.40
2022-10-05T20:49:12.659Z,12.60
2022-10-05T20:51:59.273Z,13.82
2022-10-05T20:57:31.618Z,13.55
2022-10-05T21:00:17.390Z,13.80
2022-10-05T21:03:03.432Z,13.05
2022-10-05T21:05:49.204Z,13.48
2022-10-05T21:08:38.263Z,14.60
2022-10-05T21:11:24.282Z,13.32
2022-10-05T21:14:11.390Z,13.98
2022-10-05T21:16:56.931Z,13.65
2022-10-05T21:19:42.679Z,14.05
2022-10-05T21:22:28.177Z,13.23
2022-10-05T21:25:13.956Z,13.52
2022-10-05T21:27:59.742Z,13.15
2022-10-05T21:30:45.415Z,13.43
2022-10-05T21:33:31.162Z,13.73
2022-10-05T21:36:19.996Z,14.43
2022-10-05T21:39:07.981Z,14.60
2022-10-05T21:41:53.611Z,14.50
2022-10-05T21:44:39.386Z,14.80
2022-10-05T21:47:25.806Z,14.68
2022-10-05T21:50:11.482Z,14.88
2022-10-05T21:52:57.062Z,14.80
2022-10-05T21:55:46.791Z,14.63
2022-10-05T21:58:32.563Z,14.35
2022-10-05T22:01:22.481Z,15.18
2022-10-05T22:04:08.718Z,13.93
2022-10-05T22:06:55.888Z,15.60
2022-10-05T22:09:41.521Z,14.98
2022-10-05T22:12:28.151Z,15.02
2022-10-05T22:15:14.843Z,14.48
2022-10-05T22:18:00.279Z,14.50
2022-10-05T22:20:46.234Z,14.02
2022-10-05T22:23:33.959Z,15.10
2022-10-05T22:26:22.347Z,14.50
2022-10-05T22:29:08.115Z,15.00
2022-10-05T22:31:56.314Z,14.45
2022-10-05T22:34:41.870Z,14.65
2022-10-05T22:37:27.360Z,15.02
2022-10-05T22:40:13.070Z,14.75
2022-10-05T22:42:58.950Z,15.65
2022-10-05T22:45:44.867Z,14.73
2022-10-05T22:48:30.960Z,14.60
2022-10-05T22:51:16.751Z,15.20
2022-10-05T22:54:02.419Z,16.67
2022-10-05T22:56:48.429Z,16.45
2022-10-05T22:59:34.083Z,15.88
2022-10-05T23:02:20.268Z,15.75
2022-10-05T23:05:06.367Z,15.35
2022-10-05T23:07:52.816Z,14.93
2022-10-05T23:10:38.489Z,15.05
2022-10-05T23:13:23.923Z,15.15
2022-10-05T23:16:16.906Z,15.45
2022-10-05T23:19:03.071Z,14.57
2022-10-05T23:21:49.183Z,15.27
2022-10-05T23:24:35.427Z,15.07
2022-10-05T23:27:21.215Z,16.13
2022-10-05T23:30:08.951Z,16.17
2022-10-05T23:32:54.477Z,16.13
2022-10-05T23:35:40.186Z,16.45
2022-10-05T23:38:26.449Z,15.05
2022-10-05T23:41:12.978Z,15.20
2022-10-05T23:43:58.692Z,15.65
2022-10-05T23:46:44.312Z,15.68
2022-10-05T23:49:29.894Z,15.55
2022-10-05T23:52:15.856Z,15.07
2022-10-05T23:55:05.203Z,16.08
2022-10-05T23:57:50.923Z,16.05
